sensor_id;sensor_type;location;lat;lon;timestamp;P1;durP1;ratioP1;P2;durP2;ratioP2
76351;SDS011;65179;47.786;19.138;2023-03-14T00:01:17;12.10;;;6.15;;
76351;SDS011;65179;47.786;19.138;2023-03-14T00:03:45;12.48;;;6.32;;
76351;SDS011;65179;47.786;19.138;2023-03-14T00:06:11;12.75;;;6.10;;
76351;SDS011;65179;47.786;19.138;2023-03-14T00:08:37;13.27;;;6.30;;
76351;SDS011;65179;47.786;19.138;2023-03-14T00:11:09;13.88;;;6.50;;
76351;SDS011;65179;47.786;19.138;2023-03-14T00:13:37;12.63;;;5.93;;
76351;SDS011;65179;47.786;19.138;2023-03-14T00:16:06;14.63;;;6.13;;
76351;SDS011;65179;47.786;19.138;2023-03-14T00:18:34;13.07;;;6.55;;
76351;SDS011;65179;47.786;19.138;2023-03-14T00:21:00;14.63;;;6.47;;
76351;SDS011;65179;47.786;19.138;2023-03-14T00:23:27;11.55;;;6.22;;
76351;SDS011;65179;47.786;19.138;2023-03-14T00:25:57;12.35;;;6.50;;
76351;SDS011;65179;47.786;19.138;2023-03-14T00:28:24;12.53;;;6.40;;
76351;SDS011;65179;47.786;19.138;2023-03-14T00:30:49;13.48;;;6.20;;
76351;SDS011;65179;47.786;19.138;2023-03-14T00:33:15;12.53;;;6.63;;
76351;SDS011;65179;47.786;19.138;2023-03-14T00:35:40;12.53;;;6.20;;
76351;SDS011;65179;47.786;19.138;2023-03-14T00:38:05;14.00;;;5.90;;
76351;SDS011;65179;47.786;19.138;2023-03-14T00:40:31;12.30;;;5.70;;
76351;SDS011;65179;47.786;19.138;2023-03-14T00:42:56;14.35;;;6.90;;
76351;SDS011;65179;47.786;19.138;2023-03-14T00:45:21;14.50;;;6.00;;
76351;SDS011;65179;47.786;19.138;2023-03-14T00:47:47;13.60;;;6.03;;
76351;SDS011;65179;47.786;19.138;2023-03-14T00:50:12;13.57;;;6.60;;
76351;SDS011;65179;47.786;19.138;2023-03-14T00:52:38;11.52;;;5.93;;
76351;SDS011;65179;47.786;19.138;2023-03-14T00:55:03;10.80;;;5.32;;
76351;SDS011;65179;47.786;19.138;2023-03-14T00:57:29;14.57;;;6.50;;
76351;SDS011;65179;47.786;19.138;2023-03-14T00:59:55;15.07;;;6.43;;
76351;SDS011;65179;47.786;19.138;2023-03-14T01:02:20;12.30;;;6.23;;
76351;SDS011;65179;47.786;19.138;2023-03-14T01:04:47;12.40;;;6.10;;
76351;SDS011;65179;47.786;19.138;2023-03-14T01:07:13;12.98;;;6.25;;
76351;SDS011;65179;47.786;19.138;2023-03-14T01:09:39;12.63;;;6.60;;
76351;SDS011;65179;47.786;19.138;2023-03-14T01:12:04;13.68;;;5.72;;
76351;SDS011;65179;47.786;19.138;2023-03-14T01:14:30;14.43;;;5.95;;
76351;SDS011;65179;47.786;19.138;2023-03-14T01:16:56;12.47;;;6.83;;
76351;SDS011;65179;47.786;19.138;2023-03-14T01:19:25;11.75;;;5.80;;
76351;SDS011;65179;47.786;19.138;2023-03-14T01:21:52;11.80;;;5.53;;
76351;SDS011;65179;47.786;19.138;2023-03-14T01:24:17;11.20;;;5.27;;
76351;SDS011;65179;47.786;19.138;2023-03-14T01:26:43;11.83;;;5.70;;
76351;SDS011;65179;47.786;19.138;2023-03-14T01:29:08;12.47;;;5.87;;
76351;SDS011;65179;47.786;19.138;2023-03-14T01:31:33;12.18;;;5.93;;
76351;SDS011;65179;47.786;19.138;2023-03-14T01:33:59;12.10;;;5.60;;
76351;SDS011;65179;47.786;19.138;2023-03-14T01:36:24;10.53;;;4.90;;
76351;SDS011;65179;47.786;19.138;2023-03-14T01:38:50;9.43;;;5.23;;
76351;SDS011;65179;47.786;19.138;2023-03-14T01:41:17;14.87;;;6.07;;
76351;SDS011;65179;47.786;19.138;2023-03-14T01:43:47;14.48;;;5.70;;
76351;SDS011;65179;47.786;19.138;2023-03-14T01:56:52;9.80;;;5.03;;
76351;SDS011;65179;47.786;19.138;2023-03-14T01:59:22;10.90;;;5.90;;
76351;SDS011;65179;47.786;19.138;2023-03-14T02:01:48;11.68;;;5.82;;
76351;SDS011;65179;47.786;19.138;2023-03-14T02:04:16;15.02;;;6.15;;
76351;SDS011;65179;47.786;19.138;2023-03-14T02:09:35;8.93;;;4.07;;
76351;SDS011;65179;47.786;19.138;2023-03-14T02:12:02;10.90;;;5.27;;
76351;SDS011;65179;47.786;19.138;2023-03-14T02:14:30;9.90;;;4.53;;
76351;SDS011;65179;47.786;19.138;2023-03-14T02:16:58;11.63;;;5.12;;
76351;SDS011;65179;47.786;19.138;2023-03-14T02:19:42;10.07;;;4.97;;
76351;SDS011;65179;47.786;19.138;2023-03-14T02:22:21;9.15;;;4.57;;
76351;SDS011;65179;47.786;19.138;2023-03-14T02:27:31;10.93;;;4.75;;
76351;SDS011;65179;47.786;19.138;2023-03-14T02:30:02;11.20;;;5.05;;
76351;SDS011;65179;47.786;19.138;2023-03-14T02:32:32;11.70;;;5.37;;
76351;SDS011;65179;47.786;19.138;2023-03-14T02:35:00;11.12;;;4.87;;
76351;SDS011;65179;47.786;19.138;2023-03-14T02:37:33;13.15;;;5.05;;
76351;SDS011;65179;47.786;19.138;2023-03-14T02:40:02;11.55;;;4.90;;
76351;SDS011;65179;47.786;19.138;2023-03-14T02:42:29;10.48;;;5.18;;
76351;SDS011;65179;47.786;19.138;2023-03-14T02:44:59;9.27;;;4.67;;
76351;SDS011;65179;47.786;19.138;2023-03-14T02:47:47;10.68;;;4.60;;
76351;SDS011;65179;47.786;19.138;2023-03-14T02:50:19;10.18;;;4.65;;
76351;SDS011;65179;47.786;19.138;2023-03-14T02:52:47;10.13;;;4.87;;
76351;SDS011;65179;47.786;19.138;2023-03-14T02:55:13;10.10;;;5.00;;
76351;SDS011;65179;47.786;19.138;2023-03-14T02:57:38;10.33;;;4.73;;
76351;SDS011;65179;47.786;19.138;2023-03-14T03:00:04;9.55;;;4.72;;
76351;SDS011;65179;47.786;19.138;2023-03-14T03:02:30;10.03;;;4.83;;
76351;SDS011;65179;47.786;19.138;2023-03-14T03:04:55;11.10;;;5.05;;
76351;SDS011;65179;47.786;19.138;2023-03-14T03:07:21;9.47;;;4.60;;
76351;SDS011;65179;47.786;19.138;2023-03-14T03:09:47;10.18;;;4.43;;
76351;SDS011;65179;47.786;19.138;2023-03-14T03:12:12;10.02;;;4.55;;
76351;SDS011;65179;47.786;19.138;2023-03-14T03:14:38;9.83;;;4.90;;
76351;SDS011;65179;47.786;19.138;2023-03-14T03:17:06;8.57;;;4.33;;
76351;SDS011;65179;47.786;19.138;2023-03-14T03:19:32;8.63;;;4.22;;
76351;SDS011;65179;47.786;19.138;2023-03-14T03:21:58;9.75;;;4.80;;
76351;SDS011;65179;47.786;19.138;2023-03-14T03:24:24;9.17;;;4.20;;
76351;SDS011;65179;47.786;19.138;2023-03-14T03:26:51;10.80;;;4.97;;
76351;SDS011;65179;47.786;19.138;2023-03-14T03:29:16;8.40;;;4.53;;
76351;SDS011;65179;47.786;19.138;2023-03-14T03:31:42;9.85;;;4.57;;
76351;SDS011;65179;47.786;19.138;2023-03-14T03:34:07;9.73;;;4.70;;
76351;SDS011;65179;47.786;19.138;2023-03-14T03:36:33;10.57;;;4.13;;
76351;SDS011;65179;47.786;19.138;2023-03-14T03:38:59;9.23;;;4.68;;
76351;SDS011;65179;47.786;19.138;2023-03-14T03:41:24;8.93;;;4.17;;
76351;SDS011;65179;47.786;19.138;2023-03-14T03:43:50;8.48;;;4.60;;
76351;SDS011;65179;47.786;19.138;2023-03-14T03:46:15;9.93;;;4.30;;
76351;SDS011;65179;47.786;19.138;2023-03-14T03:48:41;11.47;;;4.77;;
76351;SDS011;65179;47.786;19.138;2023-03-14T03:51:07;9.40;;;4.50;;
76351;SDS011;65179;47.786;19.138;2023-03-14T03:53:35;14.20;;;4.50;;
76351;SDS011;65179;47.786;19.138;2023-03-14T03:56:01;10.65;;;4.28;;
76351;SDS011;65179;47.786;19.138;2023-03-14T03:58:26;8.30;;;3.87;;
76351;SDS011;65179;47.786;19.138;2023-03-14T04:00:52;8.77;;;3.60;;
76351;SDS011;65179;47.786;19.138;2023-03-14T04:03:17;9.37;;;4.33;;
76351;SDS011;65179;47.786;19.138;2023-03-14T04:05:42;11.40;;;4.37;;
76351;SDS011;65179;47.786;19.138;2023-03-14T04:08:08;10.13;;;4.28;;
76351;SDS011;65179;47.786;19.138;2023-03-14T04:10:34;9.33;;;4.20;;
76351;SDS011;65179;47.786;19.138;2023-03-14T04:13:00;9.85;;;4.30;;
76351;SDS011;65179;47.786;19.138;2023-03-14T04:15:25;11.33;;;4.70;;
76351;SDS011;65179;47.786;19.138;2023-03-14T04:17:51;9.47;;;4.33;;
76351;SDS011;65179;47.786;19.138;2023-03-14T04:20:16;10.38;;;4.30;;
76351;SDS011;65179;47.786;19.138;2023-03-14T04:22:42;9.27;;;4.37;;
76351;SDS011;65179;47.786;19.138;2023-03-14T04:25:07;9.30;;;4.60;;
76351;SDS011;65179;47.786;19.138;2023-03-14T04:27:33;7.95;;;4.45;;
76351;SDS011;65179;47.786;19.138;2023-03-14T04:29:58;8.73;;;4.53;;
76351;SDS011;65179;47.786;19.138;2023-03-14T04:32:24;9.53;;;4.80;;
76351;SDS011;65179;47.786;19.138;2023-03-14T04:34:49;8.93;;;4.50;;
76351;SDS011;65179;47.786;19.138;2023-03-14T04:37:14;9.63;;;4.17;;
76351;SDS011;65179;47.786;19.138;2023-03-14T04:39:40;9.32;;;4.25;;
76351;SDS011;65179;47.786;19.138;2023-03-14T04:42:06;11.93;;;4.67;;
76351;SDS011;65179;47.786;19.138;2023-03-14T04:44:32;10.13;;;4.07;;
76351;SDS011;65179;47.786;19.138;2023-03-14T04:46:57;8.67;;;4.67;;
76351;SDS011;65179;47.786;19.138;2023-03-14T04:49:23;10.37;;;4.83;;
76351;SDS011;65179;47.786;19.138;2023-03-14T04:51:48;10.07;;;4.62;;
76351;SDS011;65179;47.786;19.138;2023-03-14T04:54:16;8.88;;;4.22;;
76351;SDS011;65179;47.786;19.138;2023-03-14T04:56:42;11.55;;;4.68;;
76351;SDS011;65179;47.786;19.138;2023-03-14T04:59:07;10.07;;;4.80;;
76351;SDS011;65179;47.786;19.138;2023-03-14T05:01:33;9.95;;;4.47;;
76351;SDS011;65179;47.786;19.138;2023-03-14T05:03:59;9.70;;;4.70;;
76351;SDS011;65179;47.786;19.138;2023-03-14T05:06:24;10.25;;;4.28;;
76351;SDS011;65179;47.786;19.138;2023-03-14T05:08:50;10.27;;;4.17;;
76351;SDS011;65179;47.786;19.138;2023-03-14T05:11:16;12.77;;;4.40;;
76351;SDS011;65179;47.786;19.138;2023-03-14T05:13:41;11.27;;;4.87;;
76351;SDS011;65179;47.786;19.138;2023-03-14T05:16:07;8.33;;;4.23;;
76351;SDS011;65179;47.786;19.138;2023-03-14T05:18:35;9.80;;;4.40;;
76351;SDS011;65179;47.786;19.138;2023-03-14T05:21:00;11.13;;;4.70;;
76351;SDS011;65179;47.786;19.138;2023-03-14T05:23:26;10.05;;;4.60;;
76351;SDS011;65179;47.786;19.138;2023-03-14T05:25:51;8.18;;;3.90;;
76351;SDS011;65179;47.786;19.138;2023-03-14T05:28:17;11.70;;;4.73;;
76351;SDS011;65179;47.786;19.138;2023-03-14T05:30:42;10.45;;;4.35;;
76351;SDS011;65179;47.786;19.138;2023-03-14T05:33:08;8.00;;;3.70;;
76351;SDS011;65179;47.786;19.138;2023-03-14T05:35:33;13.50;;;5.10;;
76351;SDS011;65179;47.786;19.138;2023-03-14T05:37:59;10.53;;;5.00;;
76351;SDS011;65179;47.786;19.138;2023-03-14T05:40:25;9.38;;;5.03;;
76351;SDS011;65179;47.786;19.138;2023-03-14T05:42:50;9.03;;;4.63;;
76351;SDS011;65179;47.786;19.138;2023-03-14T05:45:16;8.33;;;4.47;;
76351;SDS011;65179;47.786;19.138;2023-03-14T05:47:41;9.57;;;4.70;;
76351;SDS011;65179;47.786;19.138;2023-03-14T05:50:07;13.80;;;4.93;;
76351;SDS011;65179;47.786;19.138;2023-03-14T05:52:33;12.10;;;5.03;;
76351;SDS011;65179;47.786;19.138;2023-03-14T05:54:58;14.07;;;5.37;;
76351;SDS011;65179;47.786;19.138;2023-03-14T05:57:24;14.27;;;5.10;;
76351;SDS011;65179;47.786;19.138;2023-03-14T05:59:49;10.70;;;4.90;;
76351;SDS011;65179;47.786;19.138;2023-03-14T06:02:14;10.10;;;5.20;;
76351;SDS011;65179;47.786;19.138;2023-03-14T06:04:40;12.87;;;4.70;;
76351;SDS011;65179;47.786;19.138;2023-03-14T06:07:05;10.77;;;4.60;;
76351;SDS011;65179;47.786;19.138;2023-03-14T06:09:31;9.43;;;4.20;;
76351;SDS011;65179;47.786;19.138;2023-03-14T06:11:56;9.10;;;4.23;;
76351;SDS011;65179;47.786;19.138;2023-03-14T06:14:22;11.77;;;5.15;;
76351;SDS011;65179;47.786;19.138;2023-03-14T06:16:47;10.53;;;4.20;;
76351;SDS011;65179;47.786;19.138;2023-03-14T06:19:14;11.23;;;4.90;;
76351;SDS011;65179;47.786;19.138;2023-03-14T06:21:39;9.70;;;4.57;;
76351;SDS011;65179;47.786;19.138;2023-03-14T06:24:05;9.55;;;4.57;;
76351;SDS011;65179;47.786;19.138;2023-03-14T06:26:31;8.63;;;4.43;;
76351;SDS011;65179;47.786;19.138;2023-03-14T06:28:56;10.07;;;4.40;;
76351;SDS011;65179;47.786;19.138;2023-03-14T06:31:22;9.73;;;4.75;;
76351;SDS011;65179;47.786;19.138;2023-03-14T06:33:47;11.20;;;4.43;;
76351;SDS011;65179;47.786;19.138;2023-03-14T06:36:12;14.10;;;5.23;;
76351;SDS011;65179;47.786;19.138;2023-03-14T06:38:42;14.70;;;5.13;;
76351;SDS011;65179;47.786;19.138;2023-03-14T06:41:07;11.38;;;5.60;;
76351;SDS011;65179;47.786;19.138;2023-03-14T06:43:33;10.60;;;5.53;;
76351;SDS011;65179;47.786;19.138;2023-03-14T06:45:58;12.67;;;5.33;;
76351;SDS011;65179;47.786;19.138;2023-03-14T06:48:24;10.60;;;5.17;;
76351;SDS011;65179;47.786;19.138;2023-03-14T06:50:49;11.32;;;5.15;;
76351;SDS011;65179;47.786;19.138;2023-03-14T06:53:15;9.63;;;4.68;;
76351;SDS011;65179;47.786;19.138;2023-03-14T06:55:40;10.90;;;5.23;;
76351;SDS011;65179;47.786;19.138;2023-03-14T06:58:06;11.20;;;5.20;;
76351;SDS011;65179;47.786;19.138;2023-03-14T07:00:33;9.85;;;5.12;;
76351;SDS011;65179;47.786;19.138;2023-03-14T07:02:59;15.57;;;6.10;;
76351;SDS011;65179;47.786;19.138;2023-03-14T07:05:25;13.32;;;5.65;;
76351;SDS011;65179;47.786;19.138;2023-03-14T07:07:51;14.63;;;6.90;;
76351;SDS011;65179;47.786;19.138;2023-03-14T07:10:16;17.73;;;7.50;;
76351;SDS011;65179;47.786;19.138;2023-03-14T07:12:42;16.50;;;7.90;;
76351;SDS011;65179;47.786;19.138;2023-03-14T07:15:08;13.83;;;6.20;;
76351;SDS011;65179;47.786;19.138;2023-03-14T07:17:34;11.05;;;5.60;;
76351;SDS011;65179;47.786;19.138;2023-03-14T07:19:59;20.83;;;8.13;;
76351;SDS011;65179;47.786;19.138;2023-03-14T07:22:25;13.10;;;6.55;;
76351;SDS011;65179;47.786;19.138;2023-03-14T07:24:51;14.27;;;6.20;;
76351;SDS011;65179;47.786;19.138;2023-03-14T07:27:16;13.65;;;5.45;;
76351;SDS011;65179;47.786;19.138;2023-03-14T07:29:45;11.95;;;5.65;;
76351;SDS011;65179;47.786;19.138;2023-03-14T07:32:13;13.85;;;5.93;;
76351;SDS011;65179;47.786;19.138;2023-03-14T07:34:42;9.43;;;5.17;;
76351;SDS011;65179;47.786;19.138;2023-03-14T07:37:11;13.18;;;5.60;;
76351;SDS011;65179;47.786;19.138;2023-03-14T07:39:37;10.23;;;5.47;;
76351;SDS011;65179;47.786;19.138;2023-03-14T07:42:02;9.50;;;5.17;;
76351;SDS011;65179;47.786;19.138;2023-03-14T07:44:28;10.50;;;5.22;;
76351;SDS011;65179;47.786;19.138;2023-03-14T07:46:53;14.77;;;6.80;;
76351;SDS011;65179;47.786;19.138;2023-03-14T07:49:19;12.17;;;6.20;;
76351;SDS011;65179;47.786;19.138;2023-03-14T07:51:47;14.63;;;5.90;;
76351;SDS011;65179;47.786;19.138;2023-03-14T07:54:13;11.50;;;4.95;;
76351;SDS011;65179;47.786;19.138;2023-03-14T07:56:38;10.82;;;5.18;;
76351;SDS011;65179;47.786;19.138;2023-03-14T07:59:04;11.57;;;5.50;;
76351;SDS011;65179;47.786;19.138;2023-03-14T08:01:36;12.23;;;5.50;;
76351;SDS011;65179;47.786;19.138;2023-03-14T08:04:01;12.75;;;5.37;;
76351;SDS011;65179;47.786;19.138;2023-03-14T08:06:27;10.23;;;5.03;;
76351;SDS011;65179;47.786;19.138;2023-03-14T08:08:55;12.35;;;5.95;;
76351;SDS011;65179;47.786;19.138;2023-03-14T08:11:20;10.83;;;5.70;;
76351;SDS011;65179;47.786;19.138;2023-03-14T08:13:46;11.65;;;5.87;;
76351;SDS011;65179;47.786;19.138;2023-03-14T08:16:15;12.50;;;5.12;;
76351;SDS011;65179;47.786;19.138;2023-03-14T08:18:43;11.25;;;5.03;;
76351;SDS011;65179;47.786;19.138;2023-03-14T08:21:10;11.07;;;5.75;;
76351;SDS011;65179;47.786;19.138;2023-03-14T08:23:35;11.00;;;5.10;;
76351;SDS011;65179;47.786;19.138;2023-03-14T08:26:01;12.77;;;5.47;;
76351;SDS011;65179;47.786;19.138;2023-03-14T08:28:27;12.97;;;5.47;;
76351;SDS011;65179;47.786;19.138;2023-03-14T08:30:56;12.32;;;5.60;;
76351;SDS011;65179;47.786;19.138;2023-03-14T08:33:22;15.95;;;5.10;;
76351;SDS011;65179;47.786;19.138;2023-03-14T08:35:48;10.65;;;4.70;;
76351;SDS011;65179;47.786;19.138;2023-03-14T08:38:16;9.20;;;5.22;;
76351;SDS011;65179;47.786;19.138;2023-03-14T08:40:41;10.37;;;4.90;;
76351;SDS011;65179;47.786;19.138;2023-03-14T08:43:07;9.00;;;4.87;;
76351;SDS011;65179;47.786;19.138;2023-03-14T08:45:32;11.80;;;5.83;;
76351;SDS011;65179;47.786;19.138;2023-03-14T08:47:57;11.27;;;4.70;;
76351;SDS011;65179;47.786;19.138;2023-03-14T08:50:23;10.98;;;4.45;;
76351;SDS011;65179;47.786;19.138;2023-03-14T08:52:49;10.38;;;4.90;;
76351;SDS011;65179;47.786;19.138;2023-03-14T08:55:15;7.97;;;5.10;;
76351;SDS011;65179;47.786;19.138;2023-03-14T08:57:40;11.05;;;5.00;;
76351;SDS011;65179;47.786;19.138;2023-03-14T09:00:06;9.60;;;5.07;;
76351;SDS011;65179;47.786;19.138;2023-03-14T09:02:39;9.57;;;4.47;;
76351;SDS011;65179;47.786;19.138;2023-03-14T09:05:05;11.20;;;5.00;;
76351;SDS011;65179;47.786;19.138;2023-03-14T09:07:31;12.23;;;5.15;;
76351;SDS011;65179;47.786;19.138;2023-03-14T09:09:56;11.23;;;4.23;;
76351;SDS011;65179;47.786;19.138;2023-03-14T09:12:22;10.40;;;4.13;;
76351;SDS011;65179;47.786;19.138;2023-03-14T09:14:47;8.63;;;4.25;;
76351;SDS011;65179;47.786;19.138;2023-03-14T09:17:12;8.45;;;4.18;;
76351;SDS011;65179;47.786;19.138;2023-03-14T09:19:38;10.80;;;4.37;;
76351;SDS011;65179;47.786;19.138;2023-03-14T09:22:03;8.33;;;3.60;;
76351;SDS011;65179;47.786;19.138;2023-03-14T09:24:29;10.20;;;4.15;;
76351;SDS011;65179;47.786;19.138;2023-03-14T09:26:55;8.97;;;3.63;;
76351;SDS011;65179;47.786;19.138;2023-03-14T09:29:21;9.05;;;3.83;;
76351;SDS011;65179;47.786;19.138;2023-03-14T09:31:47;9.43;;;3.93;;
76351;SDS011;65179;47.786;19.138;2023-03-14T09:34:12;12.83;;;4.30;;
76351;SDS011;65179;47.786;19.138;2023-03-14T09:36:38;10.83;;;4.30;;
76351;SDS011;65179;47.786;19.138;2023-03-14T09:39:04;8.38;;;4.05;;
76351;SDS011;65179;47.786;19.138;2023-03-14T09:41:32;9.07;;;3.78;;
76351;SDS011;65179;47.786;19.138;2023-03-14T09:46:34;10.30;;;4.28;;
76351;SDS011;65179;47.786;19.138;2023-03-14T09:49:02;9.45;;;4.07;;
76351;SDS011;65179;47.786;19.138;2023-03-14T09:51:27;7.93;;;3.70;;
76351;SDS011;65179;47.786;19.138;2023-03-14T09:53:54;12.00;;;3.80;;
76351;SDS011;65179;47.786;19.138;2023-03-14T09:56:21;8.90;;;4.00;;
76351;SDS011;65179;47.786;19.138;2023-03-14T09:58:53;9.07;;;3.60;;
76351;SDS011;65179;47.786;19.138;2023-03-14T10:01:28;8.35;;;3.83;;
76351;SDS011;65179;47.786;19.138;2023-03-14T10:03:57;8.48;;;3.28;;
76351;SDS011;65179;47.786;19.138;2023-03-14T10:06:26;8.15;;;3.22;;
76351;SDS011;65179;47.786;19.138;2023-03-14T10:08:53;9.85;;;3.72;;
76351;SDS011;65179;47.786;19.138;2023-03-14T10:11:19;8.27;;;3.28;;
76351;SDS011;65179;47.786;19.138;2023-03-14T10:16:45;5.62;;;2.75;;
76351;SDS011;65179;47.786;19.138;2023-03-14T10:19:12;10.93;;;3.12;;
76351;SDS011;65179;47.786;19.138;2023-03-14T10:21:41;12.77;;;2.83;;
76351;SDS011;65179;47.786;19.138;2023-03-14T10:24:09;5.80;;;2.42;;
76351;SDS011;65179;47.786;19.138;2023-03-14T10:26:47;9.50;;;2.70;;
76351;SDS011;65179;47.786;19.138;2023-03-14T10:29:14;6.90;;;2.47;;
76351;SDS011;65179;47.786;19.138;2023-03-14T10:31:48;6.82;;;2.65;;
76351;SDS011;65179;47.786;19.138;2023-03-14T10:34:21;6.30;;;2.85;;
76351;SDS011;65179;47.786;19.138;2023-03-14T10:36:53;6.60;;;2.20;;
76351;SDS011;65179;47.786;19.138;2023-03-14T10:42:12;7.65;;;2.60;;
76351;SDS011;65179;47.786;19.138;2023-03-14T10:44:39;7.03;;;2.65;;
76351;SDS011;65179;47.786;19.138;2023-03-14T10:47:06;10.57;;;3.03;;
76351;SDS011;65179;47.786;19.138;2023-03-14T10:49:40;7.22;;;3.10;;
76351;SDS011;65179;47.786;19.138;2023-03-14T10:54:34;5.85;;;2.58;;
76351;SDS011;65179;47.786;19.138;2023-03-14T10:57:00;9.57;;;2.83;;
76351;SDS011;65179;47.786;19.138;2023-03-14T10:59:31;6.60;;;2.83;;
76351;SDS011;65179;47.786;19.138;2023-03-14T11:07:42;6.50;;;2.00;;
76351;SDS011;65179;47.786;19.138;2023-03-14T11:16:04;10.87;;;2.80;;
76351;SDS011;65179;47.786;19.138;2023-03-14T11:21:08;10.05;;;2.60;;
76351;SDS011;65179;47.786;19.138;2023-03-14T11:28:49;9.47;;;2.20;;
76351;SDS011;65179;47.786;19.138;2023-03-14T11:31:28;7.75;;;2.28;;
76351;SDS011;65179;47.786;19.138;2023-03-14T11:34:00;4.55;;;1.60;;
76351;SDS011;65179;47.786;19.138;2023-03-14T11:36:41;5.40;;;1.60;;
76351;SDS011;65179;47.786;19.138;2023-03-14T11:39:17;4.30;;;1.30;;
76351;SDS011;65179;47.786;19.138;2023-03-14T11:41:45;6.77;;;1.20;;
76351;SDS011;65179;47.786;19.138;2023-03-14T11:44:19;5.45;;;1.17;;
76351;SDS011;65179;47.786;19.138;2023-03-14T11:46:50;3.30;;;1.10;;
76351;SDS011;65179;47.786;19.138;2023-03-14T11:52:05;4.35;;;1.12;;
76351;SDS011;65179;47.786;19.138;2023-03-14T11:54:49;4.90;;;1.30;;
76351;SDS011;65179;47.786;19.138;2023-03-14T11:57:20;3.78;;;1.20;;
76351;SDS011;65179;47.786;19.138;2023-03-14T11:59:50;4.43;;;1.12;;
76351;SDS011;65179;47.786;19.138;2023-03-14T12:02:45;3.67;;;1.00;;
76351;SDS011;65179;47.786;19.138;2023-03-14T12:10:51;3.92;;;1.02;;
76351;SDS011;65179;47.786;19.138;2023-03-14T12:13:18;4.43;;;1.30;;
76351;SDS011;65179;47.786;19.138;2023-03-14T12:15:49;4.85;;;1.17;;
76351;SDS011;65179;47.786;19.138;2023-03-14T12:18:20;3.40;;;0.88;;
76351;SDS011;65179;47.786;19.138;2023-03-14T12:21:01;5.70;;;0.90;;
76351;SDS011;65179;47.786;19.138;2023-03-14T12:30:00;3.15;;;0.88;;
76351;SDS011;65179;47.786;19.138;2023-03-14T12:32:26;3.45;;;1.00;;
76351;SDS011;65179;47.786;19.138;2023-03-14T12:34:51;5.00;;;0.93;;
76351;SDS011;65179;47.786;19.138;2023-03-14T12:37:28;4.12;;;1.10;;
76351;SDS011;65179;47.786;19.138;2023-03-14T12:42:51;4.50;;;0.93;;
76351;SDS011;65179;47.786;19.138;2023-03-14T12:45:24;6.03;;;1.23;;
76351;SDS011;65179;47.786;19.138;2023-03-14T12:50:55;9.25;;;2.33;;
76351;SDS011;65179;47.786;19.138;2023-03-14T12:56:15;3.53;;;1.20;;
76351;SDS011;65179;47.786;19.138;2023-03-14T12:59:05;5.60;;;1.70;;
76351;SDS011;65179;47.786;19.138;2023-03-14T13:04:51;4.72;;;1.10;;
76351;SDS011;65179;47.786;19.138;2023-03-14T13:15:25;5.32;;;1.00;;
76351;SDS011;65179;47.786;19.138;2023-03-14T13:18:09;3.72;;;1.00;;
76351;SDS011;65179;47.786;19.138;2023-03-14T13:20:45;4.10;;;1.20;;
76351;SDS011;65179;47.786;19.138;2023-03-14T13:23:24;5.75;;;1.20;;
76351;SDS011;65179;47.786;19.138;2023-03-14T13:25:52;5.95;;;1.20;;
76351;SDS011;65179;47.786;19.138;2023-03-14T13:28:18;4.35;;;1.02;;
76351;SDS011;65179;47.786;19.138;2023-03-14T13:30:48;6.30;;;1.33;;
76351;SDS011;65179;47.786;19.138;2023-03-14T13:33:22;3.70;;;1.10;;
76351;SDS011;65179;47.786;19.138;2023-03-14T13:35:58;5.30;;;1.40;;
76351;SDS011;65179;47.786;19.138;2023-03-14T13:38:31;5.28;;;1.83;;
76351;SDS011;65179;47.786;19.138;2023-03-14T13:40:59;6.15;;;1.30;;
76351;SDS011;65179;47.786;19.138;2023-03-14T13:43:32;4.90;;;1.40;;
76351;SDS011;65179;47.786;19.138;2023-03-14T13:46:02;5.33;;;1.37;;
76351;SDS011;65179;47.786;19.138;2023-03-14T13:48:29;4.80;;;1.00;;
76351;SDS011;65179;47.786;19.138;2023-03-14T13:51:01;3.05;;;1.10;;
76351;SDS011;65179;47.786;19.138;2023-03-14T13:53:30;4.40;;;1.50;;
76351;SDS011;65179;47.786;19.138;2023-03-14T13:55:56;6.25;;;1.40;;
76351;SDS011;65179;47.786;19.138;2023-03-14T13:58:27;4.80;;;1.40;;
76351;SDS011;65179;47.786;19.138;2023-03-14T14:01:37;6.10;;;1.30;;
76351;SDS011;65179;47.786;19.138;2023-03-14T14:03:49;6.60;;;2.30;;
76351;SDS011;65179;47.786;19.138;2023-03-14T14:06:22;4.95;;;1.80;;
76351;SDS011;65179;47.786;19.138;2023-03-14T14:08:48;4.97;;;1.87;;
76351;SDS011;65179;47.786;19.138;2023-03-14T14:11:18;4.07;;;1.17;;
76351;SDS011;65179;47.786;19.138;2023-03-14T14:13:56;3.53;;;1.30;;
76351;SDS011;65179;47.786;19.138;2023-03-14T14:16:23;7.55;;;1.35;;
76351;SDS011;65179;47.786;19.138;2023-03-14T14:18:52;6.25;;;1.60;;
76351;SDS011;65179;47.786;19.138;2023-03-14T14:21:20;5.85;;;1.30;;
76351;SDS011;65179;47.786;19.138;2023-03-14T14:23:46;5.60;;;1.50;;
76351;SDS011;65179;47.786;19.138;2023-03-14T14:26:14;5.28;;;1.10;;
76351;SDS011;65179;47.786;19.138;2023-03-14T14:28:42;5.72;;;1.40;;
76351;SDS011;65179;47.786;19.138;2023-03-14T14:33:52;3.33;;;0.93;;
76351;SDS011;65179;47.786;19.138;2023-03-14T14:39:10;4.43;;;1.17;;
76351;SDS011;65179;47.786;19.138;2023-03-14T14:41:41;5.15;;;1.02;;
76351;SDS011;65179;47.786;19.138;2023-03-14T14:44:10;5.85;;;1.10;;
76351;SDS011;65179;47.786;19.138;2023-03-14T14:46:37;4.65;;;1.10;;
76351;SDS011;65179;47.786;19.138;2023-03-14T14:49:05;4.73;;;1.17;;
76351;SDS011;65179;47.786;19.138;2023-03-14T14:51:39;4.22;;;1.17;;
76351;SDS011;65179;47.786;19.138;2023-03-14T14:54:16;6.00;;;1.60;;
76351;SDS011;65179;47.786;19.138;2023-03-14T14:56:50;3.92;;;1.30;;
76351;SDS011;65179;47.786;19.138;2023-03-14T14:59:22;4.70;;;1.50;;
76351;SDS011;65179;47.786;19.138;2023-03-14T15:01:57;8.02;;;1.40;;
76351;SDS011;65179;47.786;19.138;2023-03-14T15:04:24;4.53;;;1.33;;
76351;SDS011;65179;47.786;19.138;2023-03-14T15:06:50;5.22;;;1.30;;
76351;SDS011;65179;47.786;19.138;2023-03-14T15:09:17;5.05;;;1.65;;
76351;SDS011;65179;47.786;19.138;2023-03-14T15:11:43;4.10;;;1.50;;
76351;SDS011;65179;47.786;19.138;2023-03-14T15:14:09;5.53;;;1.87;;
76351;SDS011;65179;47.786;19.138;2023-03-14T15:16:34;5.33;;;1.80;;
76351;SDS011;65179;47.786;19.138;2023-03-14T15:19:01;8.70;;;1.52;;
76351;SDS011;65179;47.786;19.138;2023-03-14T15:21:34;4.80;;;1.53;;
76351;SDS011;65179;47.786;19.138;2023-03-14T15:23:59;4.32;;;1.40;;
76351;SDS011;65179;47.786;19.138;2023-03-14T15:26:26;4.50;;;1.50;;
76351;SDS011;65179;47.786;19.138;2023-03-14T15:28:52;7.00;;;2.12;;
76351;SDS011;65179;47.786;19.138;2023-03-14T15:31:18;5.50;;;1.63;;
76351;SDS011;65179;47.786;19.138;2023-03-14T15:33:46;5.62;;;1.60;;
76351;SDS011;65179;47.786;19.138;2023-03-14T15:38:51;5.53;;;1.27;;
76351;SDS011;65179;47.786;19.138;2023-03-14T15:41:17;4.90;;;1.17;;
76351;SDS011;65179;47.786;19.138;2023-03-14T15:43:44;5.00;;;1.23;;
76351;SDS011;65179;47.786;19.138;2023-03-14T15:46:10;5.53;;;1.50;;
76351;SDS011;65179;47.786;19.138;2023-03-14T15:48:36;4.18;;;1.37;;
76351;SDS011;65179;47.786;19.138;2023-03-14T15:51:02;5.43;;;1.50;;
76351;SDS011;65179;47.786;19.138;2023-03-14T15:53:27;7.37;;;2.00;;
76351;SDS011;65179;47.786;19.138;2023-03-14T15:55:53;5.15;;;1.80;;
76351;SDS011;65179;47.786;19.138;2023-03-14T15:58:19;4.80;;;1.40;;
76351;SDS011;65179;47.786;19.138;2023-03-14T16:00:45;4.85;;;1.55;;